Aviation Digital Data Service (ADDS)

Output produced by METARs form (2339 UTC 25 February 2018)
found at http://www.aviationweather.gov/adds/metars/
 
SYCJ 252300Z 03004KT 9999 FEW017 BKN038 24/22 Q1013 NOSIG
TAF SYCJ 252300Z 2600/2624 06004KT SCT016 SCT090 
     BECMG 2609/2611 VRB04KT 6000 SHRA BKN014 BKN037